sensor_id;sensor_type;location;lat;lon;timestamp;temperature;humidity
25128;DHT22;13107;51.304;6.866;2023-01-16T00:02:40;5.80;99.90
25128;DHT22;13107;51.304;6.866;2023-01-16T00:06:42;5.80;99.90
25128;DHT22;13107;51.304;6.866;2023-01-16T00:10:44;5.80;99.90
25128;DHT22;13107;51.304;6.866;2023-01-16T00:14:46;5.80;99.90
25128;DHT22;13107;51.304;6.866;2023-01-16T00:18:48;5.70;99.90
25128;DHT22;13107;51.304;6.866;2023-01-16T00:22:51;5.70;99.90
25128;DHT22;13107;51.304;6.866;2023-01-16T00:26:52;5.70;99.90
25128;DHT22;13107;51.304;6.866;2023-01-16T00:30:54;5.70;99.90
25128;DHT22;13107;51.304;6.866;2023-01-16T00:34:56;5.70;99.90
25128;DHT22;13107;51.304;6.866;2023-01-16T00:38:58;5.60;99.90
25128;DHT22;13107;51.304;6.866;2023-01-16T00:42:59;5.50;99.90
25128;DHT22;13107;51.304;6.866;2023-01-16T00:47:02;5.50;99.90
25128;DHT22;13107;51.304;6.866;2023-01-16T00:51:03;5.30;99.90
25128;DHT22;13107;51.304;6.866;2023-01-16T00:55:05;5.20;99.90
25128;DHT22;13107;51.304;6.866;2023-01-16T00:59:08;5.30;99.90
25128;DHT22;13107;51.304;6.866;2023-01-16T01:03:10;5.40;99.90
25128;DHT22;13107;51.304;6.866;2023-01-16T01:07:12;5.40;99.90
25128;DHT22;13107;51.304;6.866;2023-01-16T01:11:14;5.40;99.90
25128;DHT22;13107;51.304;6.866;2023-01-16T01:15:16;5.40;99.90
25128;DHT22;13107;51.304;6.866;2023-01-16T01:19:18;5.20;99.90
25128;DHT22;13107;51.304;6.866;2023-01-16T01:23:20;5.10;99.90
25128;DHT22;13107;51.304;6.866;2023-01-16T01:27:22;5.10;99.90
25128;DHT22;13107;51.304;6.866;2023-01-16T01:31:23;5.00;99.90
25128;DHT22;13107;51.304;6.866;2023-01-16T01:35:25;5.00;99.90
25128;DHT22;13107;51.304;6.866;2023-01-16T01:39:27;4.90;99.90
25128;DHT22;13107;51.304;6.866;2023-01-16T01:48:04;4.90;99.90
25128;DHT22;13107;51.304;6.866;2023-01-16T01:52:13;4.90;99.90
25128;DHT22;13107;51.304;6.866;2023-01-16T01:56:42;5.00;99.90
25128;DHT22;13107;51.304;6.866;2023-01-16T02:00:44;5.10;99.90
25128;DHT22;13107;51.304;6.866;2023-01-16T02:04:47;5.10;99.90
25128;DHT22;13107;51.304;6.866;2023-01-16T02:08:54;5.20;99.90
25128;DHT22;13107;51.304;6.866;2023-01-16T02:12:57;5.30;99.90
25128;DHT22;13107;51.304;6.866;2023-01-16T02:17:16;5.20;99.90
25128;DHT22;13107;51.304;6.866;2023-01-16T02:43:42;5.50;99.90
25128;DHT22;13107;51.304;6.866;2023-01-16T02:48:06;5.60;99.90
25128;DHT22;13107;51.304;6.866;2023-01-16T02:52:23;5.50;99.90
25128;DHT22;13107;51.304;6.866;2023-01-16T02:56:41;5.40;99.90
25128;DHT22;13107;51.304;6.866;2023-01-16T03:00:55;5.40;99.90
25128;DHT22;13107;51.304;6.866;2023-01-16T03:04:58;5.40;99.90
25128;DHT22;13107;51.304;6.866;2023-01-16T03:17:39;5.30;99.90
25128;DHT22;13107;51.304;6.866;2023-01-16T03:26:06;5.10;99.90
25128;DHT22;13107;51.304;6.866;2023-01-16T03:30:24;4.90;99.90
25128;DHT22;13107;51.304;6.866;2023-01-16T03:38:37;4.90;99.90
25128;DHT22;13107;51.304;6.866;2023-01-16T03:42:52;4.80;99.90
25128;DHT22;13107;51.304;6.866;2023-01-16T03:46:59;4.80;99.90
25128;DHT22;13107;51.304;6.866;2023-01-16T03:51:05;4.70;99.90
25128;DHT22;13107;51.304;6.866;2023-01-16T03:59:10;4.70;99.90
25128;DHT22;13107;51.304;6.866;2023-01-16T04:03:18;4.70;99.90
25128;DHT22;13107;51.304;6.866;2023-01-16T04:07:28;4.80;99.90
25128;DHT22;13107;51.304;6.866;2023-01-16T04:11:33;4.80;99.90
25128;DHT22;13107;51.304;6.866;2023-01-16T04:15:41;4.70;99.90
25128;DHT22;13107;51.304;6.866;2023-01-16T04:19:44;4.60;99.90
25128;DHT22;13107;51.304;6.866;2023-01-16T04:23:48;4.70;99.90
25128;DHT22;13107;51.304;6.866;2023-01-16T04:27:50;4.60;99.90
25128;DHT22;13107;51.304;6.866;2023-01-16T04:31:51;4.60;99.90
25128;DHT22;13107;51.304;6.866;2023-01-16T04:35:53;4.60;99.90
25128;DHT22;13107;51.304;6.866;2023-01-16T04:39:55;4.40;99.90
25128;DHT22;13107;51.304;6.866;2023-01-16T04:43:56;4.50;99.90
25128;DHT22;13107;51.304;6.866;2023-01-16T04:47:58;4.50;99.90
25128;DHT22;13107;51.304;6.866;2023-01-16T04:52:00;4.60;99.90
25128;DHT22;13107;51.304;6.866;2023-01-16T04:56:01;4.50;99.90
25128;DHT22;13107;51.304;6.866;2023-01-16T05:00:05;4.50;99.90
25128;DHT22;13107;51.304;6.866;2023-01-16T05:04:08;4.50;99.90
25128;DHT22;13107;51.304;6.866;2023-01-16T05:08:10;4.50;99.90
25128;DHT22;13107;51.304;6.866;2023-01-16T05:12:18;4.60;99.90
25128;DHT22;13107;51.304;6.866;2023-01-16T05:16:20;4.60;99.90
25128;DHT22;13107;51.304;6.866;2023-01-16T05:20:21;4.70;99.90
25128;DHT22;13107;51.304;6.866;2023-01-16T05:24:23;4.80;99.90
25128;DHT22;13107;51.304;6.866;2023-01-16T05:28:25;4.80;99.90
25128;DHT22;13107;51.304;6.866;2023-01-16T05:32:26;4.80;99.90
25128;DHT22;13107;51.304;6.866;2023-01-16T05:36:28;4.80;99.90
25128;DHT22;13107;51.304;6.866;2023-01-16T05:40:30;4.80;99.90
25128;DHT22;13107;51.304;6.866;2023-01-16T05:44:32;4.90;99.90
25128;DHT22;13107;51.304;6.866;2023-01-16T05:48:34;4.90;99.90
25128;DHT22;13107;51.304;6.866;2023-01-16T05:52:37;4.90;99.90
25128;DHT22;13107;51.304;6.866;2023-01-16T05:56:39;5.00;99.90
25128;DHT22;13107;51.304;6.866;2023-01-16T06:00:41;5.10;99.90
25128;DHT22;13107;51.304;6.866;2023-01-16T06:04:44;5.00;99.90
25128;DHT22;13107;51.304;6.866;2023-01-16T06:08:46;5.00;99.90
25128;DHT22;13107;51.304;6.866;2023-01-16T06:12:48;5.30;99.90
25128;DHT22;13107;51.304;6.866;2023-01-16T06:16:50;5.20;99.90
25128;DHT22;13107;51.304;6.866;2023-01-16T06:20:52;5.10;99.90
25128;DHT22;13107;51.304;6.866;2023-01-16T06:24:54;5.10;99.90
25128;DHT22;13107;51.304;6.866;2023-01-16T06:28:55;5.10;99.90
25128;DHT22;13107;51.304;6.866;2023-01-16T06:32:57;5.20;99.90
25128;DHT22;13107;51.304;6.866;2023-01-16T06:36:59;5.20;99.90
25128;DHT22;13107;51.304;6.866;2023-01-16T06:41:01;5.20;99.90
25128;DHT22;13107;51.304;6.866;2023-01-16T06:45:02;5.30;99.90
25128;DHT22;13107;51.304;6.866;2023-01-16T06:49:04;5.20;99.90
25128;DHT22;13107;51.304;6.866;2023-01-16T06:53:06;5.40;99.90
25128;DHT22;13107;51.304;6.866;2023-01-16T06:57:07;5.30;99.90
25128;DHT22;13107;51.304;6.866;2023-01-16T07:01:09;5.40;99.90
25128;DHT22;13107;51.304;6.866;2023-01-16T07:05:11;5.40;99.90
25128;DHT22;13107;51.304;6.866;2023-01-16T07:09:14;5.40;99.90
25128;DHT22;13107;51.304;6.866;2023-01-16T07:13:16;5.40;99.90
25128;DHT22;13107;51.304;6.866;2023-01-16T07:17:18;5.40;99.90
25128;DHT22;13107;51.304;6.866;2023-01-16T07:21:40;5.40;99.90
25128;DHT22;13107;51.304;6.866;2023-01-16T07:26:04;5.30;99.90
25128;DHT22;13107;51.304;6.866;2023-01-16T07:30:07;5.40;99.90
25128;DHT22;13107;51.304;6.866;2023-01-16T07:34:09;5.40;99.90
25128;DHT22;13107;51.304;6.866;2023-01-16T07:38:11;5.40;99.90
25128;DHT22;13107;51.304;6.866;2023-01-16T07:42:13;5.40;99.90
25128;DHT22;13107;51.304;6.866;2023-01-16T07:46:15;5.30;99.90
25128;DHT22;13107;51.304;6.866;2023-01-16T07:50:16;5.30;99.90
25128;DHT22;13107;51.304;6.866;2023-01-16T07:54:18;5.20;99.90
25128;DHT22;13107;51.304;6.866;2023-01-16T07:58:20;5.30;99.90
25128;DHT22;13107;51.304;6.866;2023-01-16T08:02:22;5.30;99.90
25128;DHT22;13107;51.304;6.866;2023-01-16T08:06:24;5.30;99.90
25128;DHT22;13107;51.304;6.866;2023-01-16T08:10:26;5.30;99.90
25128;DHT22;13107;51.304;6.866;2023-01-16T08:14:28;5.30;99.90
25128;DHT22;13107;51.304;6.866;2023-01-16T08:18:29;5.30;99.90
25128;DHT22;13107;51.304;6.866;2023-01-16T08:22:31;5.20;99.90
25128;DHT22;13107;51.304;6.866;2023-01-16T08:26:32;5.10;99.90
25128;DHT22;13107;51.304;6.866;2023-01-16T08:30:34;5.20;99.90
25128;DHT22;13107;51.304;6.866;2023-01-16T08:34:36;5.20;99.90
25128;DHT22;13107;51.304;6.866;2023-01-16T08:38:38;5.20;99.90
25128;DHT22;13107;51.304;6.866;2023-01-16T08:42:40;5.20;99.90
25128;DHT22;13107;51.304;6.866;2023-01-16T08:47:03;5.20;99.90
25128;DHT22;13107;51.304;6.866;2023-01-16T08:51:24;5.20;99.90
25128;DHT22;13107;51.304;6.866;2023-01-16T08:55:26;5.30;99.90
25128;DHT22;13107;51.304;6.866;2023-01-16T08:59:28;5.30;99.90
25128;DHT22;13107;51.304;6.866;2023-01-16T09:03:35;5.30;99.90
25128;DHT22;13107;51.304;6.866;2023-01-16T09:07:36;5.30;99.90
25128;DHT22;13107;51.304;6.866;2023-01-16T09:11:38;5.20;99.90
25128;DHT22;13107;51.304;6.866;2023-01-16T09:16:02;5.10;99.90
25128;DHT22;13107;51.304;6.866;2023-01-16T09:20:04;5.00;99.90
25128;DHT22;13107;51.304;6.866;2023-01-16T09:24:07;4.90;99.90
25128;DHT22;13107;51.304;6.866;2023-01-16T09:28:10;4.90;99.90
25128;DHT22;13107;51.304;6.866;2023-01-16T09:32:12;5.00;99.90
25128;DHT22;13107;51.304;6.866;2023-01-16T09:36:14;5.00;99.90
25128;DHT22;13107;51.304;6.866;2023-01-16T09:40:19;5.00;99.90
25128;DHT22;13107;51.304;6.866;2023-01-16T09:44:21;4.90;99.90
25128;DHT22;13107;51.304;6.866;2023-01-16T09:48:27;5.00;99.90
25128;DHT22;13107;51.304;6.866;2023-01-16T09:52:32;5.00;99.90
25128;DHT22;13107;51.304;6.866;2023-01-16T09:56:58;5.00;99.90
25128;DHT22;13107;51.304;6.866;2023-01-16T10:01:25;5.10;99.90
25128;DHT22;13107;51.304;6.866;2023-01-16T10:05:38;5.10;99.90
25128;DHT22;13107;51.304;6.866;2023-01-16T10:10:25;5.20;99.90
25128;DHT22;13107;51.304;6.866;2023-01-16T10:27:33;5.10;99.90
25128;DHT22;13107;51.304;6.866;2023-01-16T10:31:42;5.20;99.90
25128;DHT22;13107;51.304;6.866;2023-01-16T10:35:48;5.20;99.90
25128;DHT22;13107;51.304;6.866;2023-01-16T10:39:52;5.20;99.90
25128;DHT22;13107;51.304;6.866;2023-01-16T10:43:54;5.30;99.90
25128;DHT22;13107;51.304;6.866;2023-01-16T10:48:16;5.30;99.90
25128;DHT22;13107;51.304;6.866;2023-01-16T10:52:38;5.40;99.90
25128;DHT22;13107;51.304;6.866;2023-01-16T10:56:39;5.50;99.90
25128;DHT22;13107;51.304;6.866;2023-01-16T11:00:42;5.50;99.90
25128;DHT22;13107;51.304;6.866;2023-01-16T11:04:44;5.60;99.90
25128;DHT22;13107;51.304;6.866;2023-01-16T11:08:53;5.60;99.90
25128;DHT22;13107;51.304;6.866;2023-01-16T11:12:55;5.70;99.90
25128;DHT22;13107;51.304;6.866;2023-01-16T11:17:29;5.60;99.90
25128;DHT22;13107;51.304;6.866;2023-01-16T11:21:55;5.70;99.90
25128;DHT22;13107;51.304;6.866;2023-01-16T11:25:59;5.80;99.90
25128;DHT22;13107;51.304;6.866;2023-01-16T11:30:04;5.80;99.90
25128;DHT22;13107;51.304;6.866;2023-01-16T11:34:11;5.80;99.90
25128;DHT22;13107;51.304;6.866;2023-01-16T11:38:17;5.80;99.90
25128;DHT22;13107;51.304;6.866;2023-01-16T11:42:19;5.80;99.90
25128;DHT22;13107;51.304;6.866;2023-01-16T11:46:58;5.80;99.90
25128;DHT22;13107;51.304;6.866;2023-01-16T11:51:02;5.60;99.90
25128;DHT22;13107;51.304;6.866;2023-01-16T11:55:09;5.70;99.90
25128;DHT22;13107;51.304;6.866;2023-01-16T11:59:41;5.70;99.90
25128;DHT22;13107;51.304;6.866;2023-01-16T12:04:05;5.70;99.90
25128;DHT22;13107;51.304;6.866;2023-01-16T12:12:17;5.90;99.90
25128;DHT22;13107;51.304;6.866;2023-01-16T12:17:01;6.00;99.90
25128;DHT22;13107;51.304;6.866;2023-01-16T12:21:22;6.20;99.90
25128;DHT22;13107;51.304;6.866;2023-01-16T12:34:49;6.00;99.90
25128;DHT22;13107;51.304;6.866;2023-01-16T12:52:23;5.70;99.90
25128;DHT22;13107;51.304;6.866;2023-01-16T13:01:20;5.80;99.90
25128;DHT22;13107;51.304;6.866;2023-01-16T13:05:31;5.90;99.90
25128;DHT22;13107;51.304;6.866;2023-01-16T13:13:51;6.00;99.90
25128;DHT22;13107;51.304;6.866;2023-01-16T13:18:01;6.00;99.90
25128;DHT22;13107;51.304;6.866;2023-01-16T13:22:27;5.70;99.90
25128;DHT22;13107;51.304;6.866;2023-01-16T13:26:30;5.70;99.90
25128;DHT22;13107;51.304;6.866;2023-01-16T13:30:33;5.50;99.90
25128;DHT22;13107;51.304;6.866;2023-01-16T13:44:08;5.40;99.90
25128;DHT22;13107;51.304;6.866;2023-01-16T13:48:51;5.50;99.90
25128;DHT22;13107;51.304;6.866;2023-01-16T13:52:55;5.50;99.90
25128;DHT22;13107;51.304;6.866;2023-01-16T13:57:01;5.60;99.90
25128;DHT22;13107;51.304;6.866;2023-01-16T14:01:04;5.60;99.90
25128;DHT22;13107;51.304;6.866;2023-01-16T14:17:28;5.60;99.90
25128;DHT22;13107;51.304;6.866;2023-01-16T14:25:40;5.40;99.90
25128;DHT22;13107;51.304;6.866;2023-01-16T14:30:03;5.30;99.90
25128;DHT22;13107;51.304;6.866;2023-01-16T14:34:05;5.20;99.90
25128;DHT22;13107;51.304;6.866;2023-01-16T14:38:25;5.20;99.90
25128;DHT22;13107;51.304;6.866;2023-01-16T14:42:47;5.10;99.90
25128;DHT22;13107;51.304;6.866;2023-01-16T14:51:54;5.00;99.90
25128;DHT22;13107;51.304;6.866;2023-01-16T14:56:30;4.90;99.90
25128;DHT22;13107;51.304;6.866;2023-01-16T15:00:34;4.80;99.90
25128;DHT22;13107;51.304;6.866;2023-01-16T15:05:31;4.80;99.90
25128;DHT22;13107;51.304;6.866;2023-01-16T15:09:06;4.80;99.90
25128;DHT22;13107;51.304;6.866;2023-01-16T15:13:29;4.70;99.90
25128;DHT22;13107;51.304;6.866;2023-01-16T15:17:56;4.60;99.90
25128;DHT22;13107;51.304;6.866;2023-01-16T15:22:39;4.70;99.90
25128;DHT22;13107;51.304;6.866;2023-01-16T15:27:00;4.80;99.90
25128;DHT22;13107;51.304;6.866;2023-01-16T15:31:10;4.80;99.90
25128;DHT22;13107;51.304;6.866;2023-01-16T15:35:16;4.70;99.90
25128;DHT22;13107;51.304;6.866;2023-01-16T15:39:31;4.70;99.90
25128;DHT22;13107;51.304;6.866;2023-01-16T15:43:40;4.70;99.90
25128;DHT22;13107;51.304;6.866;2023-01-16T15:48:13;4.70;99.90
25128;DHT22;13107;51.304;6.866;2023-01-16T15:52:21;4.70;99.90
25128;DHT22;13107;51.304;6.866;2023-01-16T15:56:38;4.70;99.90
25128;DHT22;13107;51.304;6.866;2023-01-16T16:01:01;4.70;99.90
25128;DHT22;13107;51.304;6.866;2023-01-16T16:05:03;4.60;99.90
25128;DHT22;13107;51.304;6.866;2023-01-16T16:09:09;4.50;99.90
25128;DHT22;13107;51.304;6.866;2023-01-16T16:13:16;4.70;99.90
25128;DHT22;13107;51.304;6.866;2023-01-16T16:17:32;4.70;99.90
25128;DHT22;13107;51.304;6.866;2023-01-16T16:21:52;4.70;99.90
25128;DHT22;13107;51.304;6.866;2023-01-16T16:26:14;4.70;99.90
25128;DHT22;13107;51.304;6.866;2023-01-16T16:30:24;4.70;99.90
25128;DHT22;13107;51.304;6.866;2023-01-16T16:34:26;4.70;99.90
25128;DHT22;13107;51.304;6.866;2023-01-16T16:38:46;4.70;99.90
25128;DHT22;13107;51.304;6.866;2023-01-16T16:42:51;4.80;99.90
25128;DHT22;13107;51.304;6.866;2023-01-16T16:46:56;4.70;99.90
25128;DHT22;13107;51.304;6.866;2023-01-16T16:51:28;4.70;99.90
25128;DHT22;13107;51.304;6.866;2023-01-16T16:55:33;4.70;99.90
25128;DHT22;13107;51.304;6.866;2023-01-16T16:59:36;4.70;99.90
25128;DHT22;13107;51.304;6.866;2023-01-16T17:03:39;4.70;99.90
25128;DHT22;13107;51.304;6.866;2023-01-16T17:07:41;4.70;99.90
25128;DHT22;13107;51.304;6.866;2023-01-16T17:11:44;4.70;99.90
25128;DHT22;13107;51.304;6.866;2023-01-16T17:15:49;4.70;99.90
25128;DHT22;13107;51.304;6.866;2023-01-16T17:19:51;4.70;99.90
25128;DHT22;13107;51.304;6.866;2023-01-16T17:23:53;4.80;99.90
25128;DHT22;13107;51.304;6.866;2023-01-16T17:27:54;4.70;99.90
25128;DHT22;13107;51.304;6.866;2023-01-16T17:31:56;4.80;99.90
25128;DHT22;13107;51.304;6.866;2023-01-16T17:35:58;4.80;99.90
25128;DHT22;13107;51.304;6.866;2023-01-16T17:40:10;4.80;99.90
25128;DHT22;13107;51.304;6.866;2023-01-16T17:44:17;4.70;99.90
25128;DHT22;13107;51.304;6.866;2023-01-16T17:48:38;4.70;99.90
25128;DHT22;13107;51.304;6.866;2023-01-16T17:52:40;4.70;99.90
25128;DHT22;13107;51.304;6.866;2023-01-16T17:56:41;4.70;99.90
25128;DHT22;13107;51.304;6.866;2023-01-16T18:00:44;4.70;99.90
25128;DHT22;13107;51.304;6.866;2023-01-16T18:04:45;4.70;99.90
25128;DHT22;13107;51.304;6.866;2023-01-16T18:08:49;4.80;99.90
25128;DHT22;13107;51.304;6.866;2023-01-16T18:12:50;4.80;99.90
25128;DHT22;13107;51.304;6.866;2023-01-16T18:17:15;4.80;99.90
25128;DHT22;13107;51.304;6.866;2023-01-16T18:21:25;4.80;99.90
25128;DHT22;13107;51.304;6.866;2023-01-16T18:25:56;4.70;99.90
25128;DHT22;13107;51.304;6.866;2023-01-16T18:29:57;4.80;99.90
25128;DHT22;13107;51.304;6.866;2023-01-16T18:34:01;4.70;99.90
25128;DHT22;13107;51.304;6.866;2023-01-16T18:38:03;4.80;99.90
25128;DHT22;13107;51.304;6.866;2023-01-16T18:42:23;4.70;99.90
25128;DHT22;13107;51.304;6.866;2023-01-16T18:47:04;4.70;99.90
25128;DHT22;13107;51.304;6.866;2023-01-16T18:51:24;4.80;99.90
25128;DHT22;13107;51.304;6.866;2023-01-16T18:55:44;4.80;99.90
25128;DHT22;13107;51.304;6.866;2023-01-16T19:00:13;4.80;99.90
25128;DHT22;13107;51.304;6.866;2023-01-16T19:04:34;4.80;99.90
25128;DHT22;13107;51.304;6.866;2023-01-16T19:08:36;4.90;99.90
25128;DHT22;13107;51.304;6.866;2023-01-16T19:12:38;4.80;99.90
25128;DHT22;13107;51.304;6.866;2023-01-16T19:16:40;4.90;99.90
25128;DHT22;13107;51.304;6.866;2023-01-16T19:20:50;4.80;99.90
25128;DHT22;13107;51.304;6.866;2023-01-16T19:24:54;5.00;99.90
25128;DHT22;13107;51.304;6.866;2023-01-16T19:28:56;5.00;99.90
25128;DHT22;13107;51.304;6.866;2023-01-16T19:32:58;5.10;99.90
25128;DHT22;13107;51.304;6.866;2023-01-16T19:37:00;4.90;99.90
25128;DHT22;13107;51.304;6.866;2023-01-16T19:41:06;4.90;99.90
25128;DHT22;13107;51.304;6.866;2023-01-16T19:45:28;4.90;99.90
25128;DHT22;13107;51.304;6.866;2023-01-16T19:49:49;4.90;99.90
25128;DHT22;13107;51.304;6.866;2023-01-16T19:53:51;5.00;99.90
25128;DHT22;13107;51.304;6.866;2023-01-16T19:57:54;4.90;99.90
25128;DHT22;13107;51.304;6.866;2023-01-16T20:02:04;4.90;99.90
25128;DHT22;13107;51.304;6.866;2023-01-16T20:06:06;4.80;99.90
25128;DHT22;13107;51.304;6.866;2023-01-16T20:10:08;4.70;99.90
25128;DHT22;13107;51.304;6.866;2023-01-16T20:14:11;4.60;99.90
25128;DHT22;13107;51.304;6.866;2023-01-16T20:18:12;4.40;99.90
25128;DHT22;13107;51.304;6.866;2023-01-16T20:22:14;4.40;99.90
25128;DHT22;13107;51.304;6.866;2023-01-16T20:26:35;4.30;99.90
25128;DHT22;13107;51.304;6.866;2023-01-16T20:30:38;4.20;99.90
25128;DHT22;13107;51.304;6.866;2023-01-16T20:34:46;4.20;99.90
25128;DHT22;13107;51.304;6.866;2023-01-16T20:38:48;4.10;99.90
25128;DHT22;13107;51.304;6.866;2023-01-16T20:42:49;4.00;99.90
25128;DHT22;13107;51.304;6.866;2023-01-16T20:47:12;4.00;99.90
25128;DHT22;13107;51.304;6.866;2023-01-16T20:51:14;3.90;99.90
25128;DHT22;13107;51.304;6.866;2023-01-16T20:55:16;3.90;99.90
25128;DHT22;13107;51.304;6.866;2023-01-16T20:59:30;3.90;99.90
25128;DHT22;13107;51.304;6.866;2023-01-16T21:03:32;3.90;99.90
25128;DHT22;13107;51.304;6.866;2023-01-16T21:07:34;3.90;99.90
25128;DHT22;13107;51.304;6.866;2023-01-16T21:11:37;3.90;99.90
25128;DHT22;13107;51.304;6.866;2023-01-16T21:15:57;3.80;99.90
25128;DHT22;13107;51.304;6.866;2023-01-16T21:20:19;3.90;99.90
25128;DHT22;13107;51.304;6.866;2023-01-16T21:24:39;3.90;99.90
25128;DHT22;13107;51.304;6.866;2023-01-16T21:28:41;3.90;99.90
25128;DHT22;13107;51.304;6.866;2023-01-16T21:32:43;3.90;99.90
25128;DHT22;13107;51.304;6.866;2023-01-16T21:36:45;4.00;99.90
25128;DHT22;13107;51.304;6.866;2023-01-16T21:40:50;4.00;99.90
25128;DHT22;13107;51.304;6.866;2023-01-16T21:44:52;4.00;99.90
25128;DHT22;13107;51.304;6.866;2023-01-16T21:49:19;4.00;99.90
25128;DHT22;13107;51.304;6.866;2023-01-16T21:53:21;4.00;99.90
25128;DHT22;13107;51.304;6.866;2023-01-16T21:57:25;3.90;99.90
25128;DHT22;13107;51.304;6.866;2023-01-16T22:01:27;4.00;99.90
25128;DHT22;13107;51.304;6.866;2023-01-16T22:05:29;4.00;99.90
25128;DHT22;13107;51.304;6.866;2023-01-16T22:09:30;4.00;99.90
25128;DHT22;13107;51.304;6.866;2023-01-16T22:13:32;4.00;99.90
25128;DHT22;13107;51.304;6.866;2023-01-16T22:17:54;4.00;99.90
25128;DHT22;13107;51.304;6.866;2023-01-16T22:22:00;4.00;99.90
25128;DHT22;13107;51.304;6.866;2023-01-16T22:26:02;4.00;99.90
25128;DHT22;13107;51.304;6.866;2023-01-16T22:30:04;4.00;99.90
25128;DHT22;13107;51.304;6.866;2023-01-16T22:34:06;4.00;99.90
25128;DHT22;13107;51.304;6.866;2023-01-16T22:38:08;4.00;99.90
25128;DHT22;13107;51.304;6.866;2023-01-16T22:42:14;4.00;99.90
25128;DHT22;13107;51.304;6.866;2023-01-16T22:46:17;4.00;99.90
25128;DHT22;13107;51.304;6.866;2023-01-16T22:50:25;4.00;99.90
25128;DHT22;13107;51.304;6.866;2023-01-16T22:54:27;4.00;99.90
25128;DHT22;13107;51.304;6.866;2023-01-16T22:58:28;4.00;99.90
25128;DHT22;13107;51.304;6.866;2023-01-16T23:02:31;4.00;99.90
25128;DHT22;13107;51.304;6.866;2023-01-16T23:06:32;4.00;99.90
25128;DHT22;13107;51.304;6.866;2023-01-16T23:10:34;3.90;99.90
25128;DHT22;13107;51.304;6.866;2023-01-16T23:14:36;3.90;99.90
25128;DHT22;13107;51.304;6.866;2023-01-16T23:18:37;3.80;99.90
25128;DHT22;13107;51.304;6.866;2023-01-16T23:22:39;3.90;99.90
25128;DHT22;13107;51.304;6.866;2023-01-16T23:26:41;3.90;99.90
25128;DHT22;13107;51.304;6.866;2023-01-16T23:30:43;3.80;99.90
25128;DHT22;13107;51.304;6.866;2023-01-16T23:34:44;3.90;99.90
25128;DHT22;13107;51.304;6.866;2023-01-16T23:38:47;3.90;99.90
25128;DHT22;13107;51.304;6.866;2023-01-16T23:42:48;3.90;99.90
25128;DHT22;13107;51.304;6.866;2023-01-16T23:47:23;3.90;99.90
25128;DHT22;13107;51.304;6.866;2023-01-16T23:51:25;3.80;99.90
25128;DHT22;13107;51.304;6.866;2023-01-16T23:55:26;3.80;99.90
25128;DHT22;13107;51.304;6.866;2023-01-16T23:59:28;3.70;99.90
